createdAt,value
2022-12-11T00:01:20.416Z,3.00
2022-12-11T00:03:49.442Z,3.15
2022-12-11T00:06:22.176Z,11.55
2022-12-11T00:08:55.105Z,5.35
2022-12-11T00:11:23.790Z,13.43
2022-12-11T00:16:25.241Z,6.22
2022-12-11T00:18:55.511Z,2.88
2022-12-11T00:23:50.640Z,7.30
2022-12-11T00:26:18.566Z,8.88
2022-12-11T00:28:46.371Z,2.75
2022-12-11T00:31:21.707Z,4.57
2022-12-11T00:33:51.395Z,3.85
2022-12-11T00:36:24.173Z,7.50
2022-12-11T00:38:53.819Z,3.75
2022-12-11T00:41:21.753Z,2.22
2022-12-11T00:43:49.467Z,1.73
2022-12-11T00:46:18.051Z,2.27
2022-12-11T00:51:14.196Z,2.53
2022-12-11T00:53:42.148Z,1.40
2022-12-11T00:56:16.129Z,1.58
2022-12-11T00:58:45.716Z,1.50
2022-12-11T01:01:22.167Z,3.58
2022-12-11T01:03:50.121Z,2.55
2022-12-11T01:06:22.212Z,7.55
2022-12-11T01:09:10.095Z,3.20
2022-12-11T01:11:38.305Z,1.60
2022-12-11T01:14:06.326Z,1.48
2022-12-11T01:16:34.119Z,1.23
2022-12-11T01:19:02.302Z,2.33
2022-12-11T01:21:30.607Z,3.25
2022-12-11T01:23:58.125Z,1.10
2022-12-11T01:26:25.986Z,2.05
2022-12-11T01:28:53.567Z,2.00
2022-12-11T01:31:22.180Z,1.10
2022-12-11T01:36:21.419Z,1.53
2022-12-11T01:38:50.154Z,2.58
2022-12-11T01:41:18.908Z,1.70
2022-12-11T01:44:01.950Z,2.67
2022-12-11T01:46:32.718Z,4.10
2022-12-11T01:49:04.003Z,2.13
2022-12-11T01:51:39.581Z,4.18
2022-12-11T01:54:12.226Z,3.08
2022-12-11T01:56:45.037Z,4.32
2022-12-11T01:59:19.007Z,4.32
2022-12-11T02:02:15.172Z,2.33
2022-12-11T02:04:46.030Z,2.08
2022-12-11T02:07:13.821Z,2.30
2022-12-11T02:09:45.480Z,1.83
2022-12-11T02:12:21.842Z,2.95
2022-12-11T02:15:11.328Z,2.85
2022-12-11T02:17:59.974Z,4.05
2022-12-11T02:23:36.474Z,2.63
2022-12-11T02:26:12.608Z,5.50
2022-12-11T02:28:59.612Z,4.43
2022-12-11T02:31:32.713Z,4.15
2022-12-11T02:34:13.484Z,3.17
2022-12-11T02:36:49.324Z,3.50
2022-12-11T02:39:19.382Z,2.60
2022-12-11T02:41:51.592Z,3.88
2022-12-11T02:44:27.204Z,4.03
2022-12-11T02:46:56.073Z,4.32
2022-12-11T02:49:26.690Z,2.58
2022-12-11T02:51:56.998Z,1.48
2022-12-11T02:54:32.046Z,2.20
2022-12-11T02:57:14.692Z,2.78
2022-12-11T02:59:45.638Z,2.60
2022-12-11T03:02:16.778Z,3.45
2022-12-11T03:04:47.609Z,1.40
2022-12-11T03:07:31.999Z,2.67
2022-12-11T03:09:59.941Z,3.28
2022-12-11T03:12:35.818Z,3.97
2022-12-11T03:15:10.263Z,3.25
2022-12-11T03:18:22.705Z,2.45
2022-12-11T03:22:00.630Z,1.83
2022-12-11T03:27:30.277Z,3.05
2022-12-11T03:30:05.107Z,9.85
2022-12-11T03:32:48.928Z,2.22
2022-12-11T03:35:32.051Z,1.42
2022-12-11T03:38:11.555Z,2.60
2022-12-11T03:40:43.280Z,2.95
2022-12-11T03:43:11.813Z,2.30
2022-12-11T03:48:11.441Z,1.05
2022-12-11T03:50:41.750Z,1.42
2022-12-11T03:53:11.476Z,1.83
2022-12-11T03:55:41.990Z,1.60
2022-12-11T03:58:09.588Z,1.58
2022-12-11T04:00:38.057Z,1.65
2022-12-11T04:03:14.925Z,2.42
2022-12-11T04:05:52.812Z,2.42
2022-12-11T04:08:22.411Z,1.45
2022-12-11T04:11:14.478Z,1.40
2022-12-11T04:13:42.697Z,1.85
2022-12-11T04:16:10.392Z,1.23
2022-12-11T04:18:56.651Z,1.50
2022-12-11T04:21:42.646Z,2.05
2022-12-11T04:24:16.097Z,2.50
2022-12-11T04:26:47.709Z,1.60
2022-12-11T04:29:15.726Z,1.65
2022-12-11T04:31:43.440Z,1.50
2022-12-11T04:34:11.044Z,1.33
2022-12-11T04:36:38.691Z,1.20
2022-12-11T04:39:06.475Z,2.23
2022-12-11T04:41:35.639Z,1.52
2022-12-11T04:44:03.220Z,1.38
2022-12-11T04:46:31.579Z,1.50
2022-12-11T04:49:00.284Z,1.15
2022-12-11T04:53:56.227Z,1.60
2022-12-11T04:56:25.120Z,2.40
2022-12-11T04:58:52.672Z,2.88
2022-12-11T05:01:23.315Z,1.70
2022-12-11T05:03:51.337Z,2.45
2022-12-11T05:06:19.019Z,1.80
2022-12-11T05:08:46.629Z,1.43
2022-12-11T05:11:16.339Z,1.38
2022-12-11T05:13:45.644Z,2.00
2022-12-11T05:16:17.010Z,1.40
2022-12-11T05:18:44.764Z,1.50
2022-12-11T05:21:14.900Z,1.67
2022-12-11T05:23:43.004Z,1.20
2022-12-11T05:26:18.043Z,1.70
2022-12-11T05:28:46.341Z,2.28
2022-12-11T05:31:18.574Z,1.70
2022-12-11T05:33:47.867Z,1.33
2022-12-11T05:36:22.905Z,3.80
2022-12-11T05:38:52.128Z,3.25
2022-12-11T05:41:23.236Z,2.25
2022-12-11T05:43:51.880Z,1.50
2022-12-11T05:48:55.113Z,1.75
2022-12-11T05:51:23.533Z,3.28
2022-12-11T05:53:52.974Z,2.72
2022-12-11T05:56:25.072Z,3.90
2022-12-11T05:58:54.074Z,2.25
2022-12-11T06:01:33.564Z,3.30
2022-12-11T06:04:02.262Z,1.92
2022-12-11T06:08:59.093Z,3.72
2022-12-11T06:11:30.245Z,2.15
2022-12-11T06:13:58.605Z,1.95
2022-12-11T06:16:26.327Z,3.17
2022-12-11T06:18:58.015Z,2.10
2022-12-11T06:21:32.844Z,3.92
2022-12-11T06:24:04.075Z,2.72
2022-12-11T06:26:32.147Z,1.90
2022-12-11T06:29:00.081Z,3.63
2022-12-11T06:31:27.907Z,2.17
2022-12-11T06:33:55.959Z,2.25
2022-12-11T06:36:24.806Z,2.03
2022-12-11T06:38:53.075Z,3.00
2022-12-11T06:41:20.620Z,2.17
2022-12-11T06:43:48.462Z,3.50
2022-12-11T06:46:19.533Z,2.20
2022-12-11T06:48:48.969Z,2.00
2022-12-11T06:51:21.057Z,2.58
2022-12-11T06:53:54.860Z,2.55
2022-12-11T06:56:24.022Z,1.85
2022-12-11T06:58:52.489Z,1.92
2022-12-11T07:01:26.664Z,2.80
2022-12-11T07:03:56.639Z,2.25
2022-12-11T07:06:25.878Z,2.58
2022-12-11T07:08:54.635Z,2.55
2022-12-11T07:11:22.877Z,2.92
2022-12-11T07:13:50.595Z,7.90
2022-12-11T07:16:19.253Z,5.80
2022-12-11T07:18:50.505Z,2.45
2022-12-11T07:21:20.115Z,2.75
2022-12-11T07:23:49.464Z,2.28
2022-12-11T07:26:20.767Z,2.55
2022-12-11T07:28:49.289Z,3.15
2022-12-11T07:31:22.132Z,3.35
2022-12-11T07:34:00.854Z,6.03
2022-12-11T07:36:30.326Z,6.15
2022-12-11T07:39:00.134Z,4.72
2022-12-11T07:41:28.835Z,6.88
2022-12-11T07:43:56.636Z,14.75
2022-12-11T07:46:28.307Z,7.28
2022-12-11T07:48:55.938Z,5.63
2022-12-11T07:51:36.799Z,6.47
2022-12-11T07:54:22.457Z,5.93
2022-12-11T07:56:53.773Z,7.60
2022-12-11T07:59:21.687Z,4.30
2022-12-11T08:01:49.323Z,4.28
2022-12-11T08:04:16.870Z,6.20
2022-12-11T08:06:44.528Z,7.60
2022-12-11T08:09:20.610Z,8.17
2022-12-11T08:11:52.627Z,5.40
2022-12-11T08:14:21.096Z,7.93
2022-12-11T08:16:50.080Z,6.45
2022-12-11T08:19:18.138Z,6.18
2022-12-11T08:21:45.732Z,6.53
2022-12-11T08:24:16.517Z,5.07
2022-12-11T08:26:45.332Z,6.50
2022-12-11T08:29:13.521Z,6.90
2022-12-11T08:31:42.486Z,11.20
2022-12-11T08:34:13.848Z,16.55
2022-12-11T08:36:41.969Z,10.68
2022-12-11T08:39:09.576Z,11.45
2022-12-11T08:41:38.395Z,9.13
2022-12-11T08:44:07.076Z,7.57
2022-12-11T08:46:36.149Z,8.35
2022-12-11T08:49:04.489Z,7.43
2022-12-11T08:51:33.015Z,9.77
2022-12-11T08:54:01.875Z,7.78
2022-12-11T08:56:30.135Z,8.27
2022-12-11T08:59:01.691Z,8.68
2022-12-11T09:01:29.908Z,6.38
2022-12-11T09:03:58.130Z,5.63
2022-12-11T09:06:31.805Z,5.25
2022-12-11T09:09:01.624Z,4.78
2022-12-11T09:11:34.509Z,5.55
2022-12-11T09:14:07.172Z,3.85
2022-12-11T09:16:40.452Z,6.03
2022-12-11T09:19:14.343Z,7.38
2022-12-11T09:21:43.948Z,14.80
2022-12-11T09:24:13.445Z,7.28
2022-12-11T09:26:42.048Z,7.25
2022-12-11T09:31:38.525Z,3.95
2022-12-11T09:34:09.006Z,4.18
2022-12-11T09:36:39.585Z,5.30
2022-12-11T09:39:09.163Z,5.63
2022-12-11T09:42:02.121Z,5.28
2022-12-11T09:44:54.841Z,5.32
2022-12-11T09:47:30.940Z,7.05
2022-12-11T09:50:15.513Z,10.30
2022-12-11T09:53:17.058Z,7.88
2022-12-11T09:56:09.641Z,10.68
2022-12-11T09:58:45.803Z,13.48
2022-12-11T10:01:36.108Z,9.13
2022-12-11T10:04:25.198Z,12.63
2022-12-11T10:07:15.594Z,7.07
2022-12-11T10:10:15.465Z,11.85
2022-12-11T10:13:30.894Z,5.30
2022-12-11T10:16:24.281Z,9.27
2022-12-11T10:18:53.220Z,7.50
2022-12-11T10:21:21.426Z,9.38
2022-12-11T10:24:00.689Z,4.68
2022-12-11T10:26:29.896Z,5.03
2022-12-11T10:29:01.322Z,4.22
2022-12-11T10:31:49.870Z,8.00
2022-12-11T10:34:37.574Z,5.28
2022-12-11T10:37:05.352Z,5.20
2022-12-11T10:39:33.230Z,8.07
2022-12-11T10:42:15.995Z,7.05
2022-12-11T10:45:05.694Z,6.30
2022-12-11T10:47:34.135Z,7.57
2022-12-11T10:50:04.161Z,6.35
2022-12-11T10:52:45.192Z,6.03
2022-12-11T10:55:47.669Z,7.78
2022-12-11T10:58:25.600Z,9.07
2022-12-11T11:01:17.153Z,8.63
2022-12-11T11:03:55.274Z,8.88
2022-12-11T11:06:25.221Z,11.25
2022-12-11T11:08:56.920Z,13.07
2022-12-11T11:11:27.495Z,11.60
2022-12-11T11:14:30.474Z,10.57
2022-12-11T11:17:01.303Z,12.00
2022-12-11T11:19:38.526Z,12.45
2022-12-11T11:22:16.408Z,20.90
2022-12-11T11:24:53.912Z,35.80
2022-12-11T11:27:44.076Z,16.53
2022-12-11T11:30:22.541Z,24.10
2022-12-11T11:35:29.952Z,13.68
2022-12-11T11:38:26.933Z,14.48
2022-12-11T11:41:24.437Z,12.48
2022-12-11T11:43:57.863Z,8.85
2022-12-11T11:46:53.292Z,8.75
2022-12-11T11:50:24.686Z,9.05
2022-12-11T11:53:23.161Z,10.60
2022-12-11T11:56:21.404Z,12.43
2022-12-11T12:01:42.868Z,9.38
2022-12-11T12:04:12.174Z,9.20
2022-12-11T12:07:08.428Z,12.27
2022-12-11T12:09:51.754Z,11.10
2022-12-11T12:12:47.343Z,12.98
2022-12-11T12:15:34.993Z,12.43
2022-12-11T12:18:21.576Z,17.00
2022-12-11T12:21:31.385Z,13.52
2022-12-11T12:24:45.311Z,19.17
2022-12-11T12:27:51.468Z,17.65
2022-12-11T12:30:22.852Z,14.70
2022-12-11T12:33:17.109Z,15.05
2022-12-11T12:36:07.077Z,15.65
2022-12-11T12:38:53.220Z,18.65
2022-12-11T12:41:49.208Z,12.82
2022-12-11T12:44:21.542Z,19.85
2022-12-11T12:47:03.932Z,14.30
2022-12-11T12:49:42.259Z,21.05
2022-12-11T12:52:19.356Z,14.30
2022-12-11T12:55:12.604Z,15.77
2022-12-11T12:57:48.022Z,17.13
2022-12-11T13:00:44.070Z,17.77
2022-12-11T13:03:15.940Z,23.25
2022-12-11T13:05:59.866Z,38.60
2022-12-11T13:08:34.773Z,72.90
2022-12-11T13:11:07.680Z,40.28
2022-12-11T13:13:40.856Z,31.40
2022-12-11T13:16:17.454Z,24.05
2022-12-11T13:18:48.222Z,28.60
2022-12-11T13:21:38.345Z,26.80
2022-12-11T13:24:15.258Z,28.80
2022-12-11T13:26:44.092Z,20.20
2022-12-11T13:29:42.257Z,26.23
2022-12-11T13:32:09.991Z,35.38
2022-12-11T13:34:45.260Z,38.63
2022-12-11T13:37:41.905Z,29.58
2022-12-11T13:40:22.825Z,31.38
2022-12-11T13:42:57.539Z,21.67
2022-12-11T13:45:42.218Z,30.77
2022-12-11T13:48:40.903Z,29.70
2022-12-11T13:51:14.357Z,26.10
2022-12-11T13:53:42.009Z,31.25
2022-12-11T13:56:20.996Z,23.07
2022-12-11T13:58:49.365Z,18.58
2022-12-11T14:01:30.087Z,18.48
2022-12-11T14:04:07.902Z,22.85
2022-12-11T14:06:38.905Z,23.42
2022-12-11T14:09:08.433Z,20.58
2022-12-11T14:11:41.816Z,21.02
2022-12-11T14:14:23.622Z,20.00
2022-12-11T14:16:52.963Z,20.58
2022-12-11T14:19:23.247Z,18.55
2022-12-11T14:22:05.532Z,19.83
2022-12-11T14:24:33.301Z,20.15
2022-12-11T14:27:01.317Z,22.15
2022-12-11T14:29:33.908Z,20.60
2022-12-11T14:32:07.222Z,50.72
2022-12-11T14:34:46.153Z,32.72
2022-12-11T14:37:19.386Z,29.27
2022-12-11T14:40:09.758Z,27.23
2022-12-11T14:42:46.593Z,50.10
2022-12-11T14:45:30.123Z,28.35
2022-12-11T14:48:00.892Z,29.63
2022-12-11T14:50:47.576Z,19.85
2022-12-11T14:53:24.739Z,25.00
2022-12-11T14:55:53.818Z,25.67
2022-12-11T14:58:23.760Z,25.35
2022-12-11T15:01:05.068Z,21.55
2022-12-11T15:03:40.060Z,19.80
2022-12-11T15:06:30.448Z,22.70
2022-12-11T15:08:58.517Z,21.30
2022-12-11T15:11:32.914Z,22.70
2022-12-11T15:14:05.398Z,24.65
2022-12-11T15:16:37.294Z,33.40
2022-12-11T15:19:05.261Z,33.08
2022-12-11T15:21:36.293Z,21.00
2022-12-11T15:24:07.063Z,28.77
2022-12-11T15:26:46.716Z,23.63
2022-12-11T15:29:38.723Z,37.38
2022-12-11T15:32:08.975Z,29.25
2022-12-11T15:34:44.728Z,23.08
2022-12-11T15:37:19.309Z,23.23
2022-12-11T15:39:46.986Z,17.48
2022-12-11T15:42:23.260Z,22.60
2022-12-11T15:44:51.275Z,21.60
2022-12-11T15:47:28.114Z,33.63
2022-12-11T15:50:08.011Z,18.23
2022-12-11T15:52:35.544Z,120.95
2022-12-11T15:55:03.354Z,39.60
2022-12-11T15:57:31.272Z,16.75
2022-12-11T15:59:59.715Z,14.48
2022-12-11T16:02:28.055Z,18.95
2022-12-11T16:04:56.626Z,18.73
2022-12-11T16:09:54.038Z,16.65
2022-12-11T16:12:21.762Z,19.70
2022-12-11T16:14:49.320Z,19.00
2022-12-11T16:17:17.431Z,19.13
2022-12-11T16:19:45.513Z,114.35
2022-12-11T16:22:14.224Z,119.57
2022-12-11T16:24:42.403Z,174.88
2022-12-11T16:27:13.001Z,83.88
2022-12-11T16:29:44.505Z,79.28
2022-12-11T16:32:12.920Z,55.15
2022-12-11T16:34:40.493Z,42.58
2022-12-11T16:37:09.443Z,35.53
2022-12-11T16:39:38.853Z,34.72
2022-12-11T16:42:06.998Z,27.30
2022-12-11T16:44:37.325Z,30.92
2022-12-11T16:47:08.715Z,36.13
2022-12-11T16:49:36.405Z,27.40
2022-12-11T16:52:04.250Z,25.38
2022-12-11T16:54:32.113Z,37.72
2022-12-11T16:56:59.812Z,34.88
2022-12-11T16:59:29.032Z,24.73
2022-12-11T17:01:58.892Z,25.85
2022-12-11T17:04:28.774Z,22.33
2022-12-11T17:06:56.457Z,20.88
2022-12-11T17:09:24.532Z,20.63
2022-12-11T17:11:54.635Z,24.80
2022-12-11T17:14:22.252Z,24.48
2022-12-11T17:16:50.164Z,22.15
2022-12-11T17:19:17.793Z,19.33
2022-12-11T17:21:51.519Z,20.42
2022-12-11T17:24:19.961Z,17.30
2022-12-11T17:26:48.963Z,18.67
2022-12-11T17:29:17.140Z,17.42
2022-12-11T17:31:44.991Z,20.02
2022-12-11T17:34:12.543Z,22.23
2022-12-11T17:36:40.190Z,28.88
2022-12-11T17:39:07.846Z,23.57
2022-12-11T17:41:35.444Z,23.63
2022-12-11T17:44:03.050Z,25.08
2022-12-11T17:46:30.739Z,20.93
2022-12-11T17:49:00.093Z,17.35
2022-12-11T17:51:27.845Z,18.38
2022-12-11T17:53:57.176Z,18.40
2022-12-11T17:56:26.293Z,16.92
2022-12-11T17:58:54.096Z,17.20
2022-12-11T18:01:22.070Z,15.68
2022-12-11T18:03:49.664Z,15.70
2022-12-11T18:06:17.453Z,15.03
2022-12-11T18:08:46.231Z,15.33
2022-12-11T18:11:21.595Z,13.15
2022-12-11T18:13:53.821Z,16.25
2022-12-11T18:16:28.946Z,14.90
2022-12-11T18:18:56.775Z,54.80
2022-12-11T18:21:29.185Z,54.83
2022-12-11T18:23:56.824Z,41.13
2022-12-11T18:26:25.238Z,49.57
2022-12-11T18:28:53.186Z,53.65
2022-12-11T18:31:23.028Z,63.65
2022-12-11T18:33:50.945Z,70.53
2022-12-11T18:36:20.874Z,53.70
2022-12-11T18:38:49.559Z,53.30
2022-12-11T18:43:47.194Z,43.80
2022-12-11T18:46:19.975Z,22.20
2022-12-11T18:48:49.112Z,28.52
2022-12-11T18:51:23.688Z,23.58
2022-12-11T18:53:52.224Z,18.58
2022-12-11T18:56:21.377Z,21.30
2022-12-11T18:58:51.378Z,20.27
2022-12-11T19:01:26.021Z,15.77
2022-12-11T19:04:02.444Z,15.43
2022-12-11T19:06:33.161Z,13.23
2022-12-11T19:09:02.650Z,14.52
2022-12-11T19:11:33.571Z,17.88
2022-12-11T19:14:01.571Z,16.95
2022-12-11T19:16:39.390Z,16.58
2022-12-11T19:19:16.606Z,15.00
2022-12-11T19:21:45.673Z,13.30
2022-12-11T19:24:20.161Z,14.18
2022-12-11T19:26:49.294Z,16.60
2022-12-11T19:29:33.712Z,15.75
2022-12-11T19:32:03.177Z,20.38
2022-12-11T19:37:00.438Z,24.33
2022-12-11T19:39:28.055Z,20.70
2022-12-11T19:41:55.817Z,17.83
2022-12-11T19:44:23.493Z,23.63
2022-12-11T19:46:51.168Z,29.87
2022-12-11T19:49:18.965Z,40.40
2022-12-11T19:51:46.554Z,42.70
2022-12-11T19:56:48.409Z,30.60
2022-12-11T19:59:17.932Z,32.10
2022-12-11T20:01:48.221Z,36.28
2022-12-11T20:04:23.840Z,18.70
2022-12-11T20:06:52.213Z,16.67
2022-12-11T20:09:19.952Z,20.30
2022-12-11T20:11:47.905Z,17.45
2022-12-11T20:14:25.030Z,21.95
2022-12-11T20:17:12.101Z,18.67
2022-12-11T20:19:40.860Z,19.05
2022-12-11T20:22:09.225Z,19.83
2022-12-11T20:24:37.146Z,16.85
2022-12-11T20:27:05.499Z,15.77
2022-12-11T20:29:33.202Z,16.05
2022-12-11T20:32:00.837Z,18.50
2022-12-11T20:34:28.502Z,19.20
2022-12-11T20:36:56.426Z,24.57
2022-12-11T20:39:25.010Z,21.75
2022-12-11T20:41:52.854Z,17.90
2022-12-11T20:44:20.720Z,19.80
2022-12-11T20:46:48.325Z,15.23
2022-12-11T20:49:15.878Z,20.50
2022-12-11T20:51:43.994Z,27.40
2022-12-11T20:54:11.786Z,26.58
2022-12-11T20:56:39.396Z,29.53
2022-12-11T20:59:06.961Z,21.10
2022-12-11T21:01:35.081Z,17.05
2022-12-11T21:04:03.129Z,18.63
2022-12-11T21:06:35.134Z,18.27
2022-12-11T21:09:08.523Z,20.67
2022-12-11T21:11:36.133Z,21.23
2022-12-11T21:14:04.513Z,25.42
2022-12-11T21:16:32.741Z,52.80
2022-12-11T21:19:00.296Z,24.25
2022-12-11T21:21:27.841Z,26.48
2022-12-11T21:23:55.449Z,96.78
2022-12-11T21:26:24.198Z,44.65
2022-12-11T21:28:52.476Z,94.15
2022-12-11T21:31:20.307Z,30.23
2022-12-11T21:33:48.689Z,23.80
2022-12-11T21:36:17.420Z,95.07
2022-12-11T21:38:46.235Z,19.95
2022-12-11T21:41:18.585Z,15.32
2022-12-11T21:46:36.650Z,61.10
2022-12-11T21:49:04.432Z,25.63
2022-12-11T21:51:39.488Z,38.27
2022-12-11T21:54:15.869Z,25.98
2022-12-11T21:56:44.161Z,26.77
2022-12-11T21:59:12.090Z,19.80
2022-12-11T22:01:43.956Z,16.55
2022-12-11T22:04:13.263Z,17.95
2022-12-11T22:06:46.948Z,27.83
2022-12-11T22:09:18.027Z,20.15
2022-12-11T22:11:47.702Z,38.42
2022-12-11T22:14:18.294Z,33.80
2022-12-11T22:16:46.729Z,32.78
2022-12-11T22:19:14.604Z,42.30
2022-12-11T22:21:42.715Z,42.38
2022-12-11T22:24:10.420Z,53.83
2022-12-11T22:26:39.069Z,57.50
2022-12-11T22:31:34.080Z,28.73
2022-12-11T22:34:01.939Z,31.95
2022-12-11T22:36:29.993Z,16.38
2022-12-11T22:41:31.870Z,16.05
2022-12-11T22:44:00.815Z,17.15
2022-12-11T22:46:30.164Z,25.27
2022-12-11T22:48:59.158Z,18.50
2022-12-11T22:51:27.119Z,122.68
2022-12-11T22:53:54.881Z,26.35
2022-12-11T22:56:22.452Z,37.33
2022-12-11T22:58:50.132Z,44.58
2022-12-11T23:01:22.137Z,55.30
2022-12-11T23:03:50.166Z,37.33
2022-12-11T23:06:21.769Z,38.83
2022-12-11T23:08:49.968Z,30.98
2022-12-11T23:11:22.944Z,38.55
2022-12-11T23:13:51.160Z,102.03
2022-12-11T23:16:19.547Z,53.13
2022-12-11T23:18:47.208Z,42.15
2022-12-11T23:21:14.859Z,34.17
2022-12-11T23:23:42.913Z,38.00
2022-12-11T23:28:41.655Z,57.00
2022-12-11T23:31:10.669Z,55.25
2022-12-11T23:33:38.593Z,50.78
2022-12-11T23:36:07.168Z,35.13
2022-12-11T23:41:04.171Z,40.77
2022-12-11T23:43:34.213Z,33.05
2022-12-11T23:46:03.787Z,37.22
2022-12-11T23:48:31.791Z,45.72
2022-12-11T23:51:01.742Z,37.88
2022-12-11T23:53:29.484Z,34.00
2022-12-11T23:56:04.455Z,39.47
2022-12-11T23:58:34.987Z,40.58
